Time;durP1;ratioP1;P1;durP2;ratioP2;P2;SDS_P1;SDS_P2;PMS_P1;PMS_P2;Temp;Humidity;BMP_temperature;BMP_pressure;BME280_temperature;BME280_humidity;BME280_pressure;Samples;Min_cycle;Max_cycle;Signal;HPM_P1;HPM_P2
2021/09/02 00:00:41;;;;;;;19.00;7.70;;;;;;;18.42;65.50;98358.95;26936;1221;3026674;-68
2021/09/02 00:03:10;;;;;;;15.60;8.10;;;;;;;18.88;63.96;98357.19;26957;1225;3049877;-72
2021/09/02 00:05:39;;;;;;;19.30;8.20;;;;;;;19.20;63.05;98353.48;26909;1224;3026279;-68
2021/09/02 00:08:08;;;;;;;19.60;8.30;;;;;;;19.09;63.31;98355.87;26953;1226;3051935;-71
2021/09/02 00:10:40;;;;;;;14.70;7.10;;;;;;;18.95;63.92;98359.04;26959;1221;3026755;-68
2021/09/02 00:13:23;;;;;;;15.80;7.40;;;;;;;18.81;64.31;98359.95;26958;1224;3071054;-65
2021/09/02 00:16:12;;;;;;;29.00;7.20;;;;;;;18.66;64.96;98356.13;26994;1225;3048711;-67
2021/09/02 00:18:40;;;;;;;15.60;7.60;;;;;;;18.53;65.54;98359.48;27142;1225;3027492;-65
2021/09/02 00:21:13;;;;;;;19.50;6.80;;;;;;;18.36;65.81;98357.10;27286;1224;3070945;-70
2021/09/02 00:23:42;;;;;;;12.00;4.80;;;;;;;18.29;66.16;98361.80;27200;1224;3029248;-63
2021/09/02 00:26:10;;;;;;;9.80;4.90;;;;;;;18.78;64.74;98365.63;27094;1224;3050596;-69
2021/09/02 00:28:40;;;;;;;15.40;5.20;;;;;;;19.09;63.83;98365.17;26970;1225;3026337;-62
2021/09/02 00:31:09;;;;;;;9.50;4.90;;;;;;;19.04;63.00;98366.39;26962;1225;3052372;-68
2021/09/02 00:33:37;;;;;;;9.10;4.50;;;;;;;18.86;63.63;98367.38;26945;1224;3026019;-68
2021/09/02 00:36:13;;;;;;;10.20;4.90;;;;;;;18.69;63.68;98365.15;26942;1224;3051967;-74
2021/09/02 00:38:42;;;;;;;8.80;4.70;;;;;;;18.59;63.72;98360.05;26919;1225;3026538;-73
2021/09/02 00:41:11;;;;;;;10.10;4.40;;;;;;;18.43;64.03;98353.84;26955;1224;3026123;-69
2021/09/02 00:43:41;;;;;;;6.40;4.10;;;;;;;18.36;64.54;98347.53;26914;1226;3049084;-67
2021/09/02 00:46:15;;;;;;;11.40;6.20;;;;;;;18.29;64.92;98341.21;26951;1228;3026961;-67
2021/09/02 00:48:45;;;;;;;9.70;6.80;;;;;;;18.31;65.29;98339.58;26939;1221;3026010;-70
2021/09/02 00:51:15;;;;;;;9.80;6.60;;;;;;;18.89;63.76;98337.23;26946;1220;3026364;-71
2021/09/02 00:53:46;;;;;;;10.70;7.00;;;;;;;19.31;62.34;98327.31;26939;1225;3026420;-67
2021/09/02 00:56:15;;;;;;;12.20;5.60;;;;;;;19.35;62.08;98327.00;26939;1219;3026121;-66
2021/09/02 00:58:47;;;;;;;11.60;5.60;;;;;;;19.15;62.69;98327.70;27026;1224;3026511;-72
2021/09/02 01:01:16;;;;;;;11.20;5.70;;;;;;;18.94;63.56;98326.96;26970;1224;3027922;-69
2021/09/02 01:03:45;;;;;;;9.20;5.50;;;;;;;18.83;63.48;98327.27;27026;1219;3025710;-66
2021/09/02 01:06:15;;;;;;;11.60;5.90;;;;;;;18.69;64.72;98324.38;26989;1224;3026021;-68
2021/09/02 01:08:45;;;;;;;9.40;5.60;;;;;;;18.60;64.66;98323.48;27045;1219;3057712;-68
2021/09/02 01:11:14;;;;;;;13.00;5.70;;;;;;;18.41;65.57;98321.42;26966;1225;3028196;-68
2021/09/02 01:13:43;;;;;;;10.70;5.20;;;;;;;18.22;66.23;98320.75;27072;1222;3026010;-63
2021/09/02 01:16:12;;;;;;;15.50;7.50;;;;;;;18.67;65.15;98322.42;27049;1224;3054413;-70
2021/09/02 01:18:41;;;;;;;18.00;9.80;;;;;;;19.06;63.62;98317.39;27051;1220;3025793;-68
2021/09/02 01:24:02;;;;;;;18.00;11.60;;;;;;;19.02;63.89;98317.69;33823;1225;3025936;-57
2021/09/02 01:26:32;;;;;;;15.60;9.60;;;;;;;18.73;64.54;98317.21;27093;1225;3026219;-58
2021/09/02 01:29:00;;;;;;;19.40;8.90;;;;;;;18.34;66.43;98315.04;26930;1222;3028175;-59
2021/09/02 01:31:30;;;;;;;13.60;6.70;;;;;;;18.09;67.41;98312.08;26894;1231;3051062;-56
2021/09/02 01:33:59;;;;;;;17.20;9.00;;;;;;;18.05;67.29;98308.47;26937;1221;3026478;-58
2021/09/02 01:36:27;;;;;;;12.50;7.10;;;;;;;18.02;67.35;98308.60;26878;1221;3070439;-60
2021/09/02 01:38:56;;;;;;;14.80;7.10;;;;;;;18.53;66.37;98304.66;26923;1225;3026535;-55
2021/09/02 01:41:25;;;;;;;17.30;8.30;;;;;;;18.76;65.81;98308.91;26895;1221;3051492;-57
2021/09/02 01:43:54;;;;;;;26.60;12.00;;;;;;;18.52;66.46;98304.51;26876;1225;3025406;-59
2021/09/02 01:46:23;;;;;;;23.20;10.20;;;;;;;18.44;66.66;98304.70;26876;1221;3054864;-59
2021/09/02 01:48:53;;;;;;;26.20;12.70;;;;;;;18.18;67.41;98300.30;26908;1223;3027294;-58
2021/09/02 01:51:22;;;;;;;37.30;13.70;;;;;;;17.97;68.24;98292.64;26873;1225;3049035;-57
2021/09/02 01:53:51;;;;;;;28.90;13.40;;;;;;;17.82;68.76;98293.48;26941;1225;3026449;-62
2021/09/02 01:56:20;;;;;;;24.70;10.10;;;;;;;17.75;69.19;98293.40;26891;1226;3058430;-56
2021/09/02 01:58:49;;;;;;;31.70;11.80;;;;;;;18.16;68.49;98294.42;26891;1222;3026477;-60
2021/09/02 02:01:18;;;;;;;21.70;10.80;;;;;;;18.39;67.57;98297.77;26917;1222;3054250;-61
2021/09/02 02:03:47;;;;;;;23.50;9.30;;;;;;;18.34;67.75;98296.19;26926;1225;3029426;-60
2021/09/02 02:06:16;;;;;;;17.50;8.50;;;;;;;18.18;68.13;98293.52;26883;1221;3051903;-60
2021/09/02 02:08:46;;;;;;;17.30;8.30;;;;;;;17.97;69.00;98290.30;26884;1225;3027272;-58
2021/09/02 02:11:15;;;;;;;25.20;9.60;;;;;;;17.75;70.07;98287.79;26919;1223;3026387;-59
2021/09/02 02:13:44;;;;;;;13.30;7.70;;;;;;;17.59;70.55;98284.52;26879;1221;3051459;-60
2021/09/02 02:16:13;;;;;;;15.50;9.00;;;;;;;18.03;69.36;98281.86;26945;1225;3026513;-59
2021/09/02 02:18:51;;;;;;;21.80;10.60;;;;;;;18.40;68.21;98280.32;26905;1224;3049264;-58
2021/09/02 02:21:20;;;;;;;18.90;13.60;;;;;;;18.24;68.34;98278.19;26884;1225;3025552;-57
2021/09/02 02:23:49;;;;;;;23.30;10.00;;;;;;;17.98;69.60;98281.02;26868;1228;3069307;-59
2021/09/02 02:26:18;;;;;;;20.50;12.00;;;;;;;17.72;70.54;98281.34;26904;1222;3026396;-58
2021/09/02 02:28:47;;;;;;;15.40;8.20;;;;;;;17.60;71.07;98284.26;26893;1221;3051375;-60
2021/09/02 02:31:16;;;;;;;13.90;8.30;;;;;;;17.96;70.13;98283.65;26891;1225;3026521;-58
2021/09/02 02:33:45;;;;;;;13.80;10.20;;;;;;;18.23;68.79;98289.02;26951;1228;3052011;-58
2021/09/02 02:36:14;;;;;;;17.90;10.60;;;;;;;18.26;68.48;98293.00;26940;1221;3026526;-61
2021/09/02 02:38:43;;;;;;;16.30;12.50;;;;;;;18.11;68.55;98290.52;26948;1225;3048570;-58
2021/09/02 02:41:13;;;;;;;19.70;12.80;;;;;;;17.90;69.34;98286.62;26949;1229;3026119;-59
2021/09/02 02:43:46;;;;;;;22.30;12.90;;;;;;;17.72;70.28;98284.34;26926;1224;3025918;-59
2021/09/02 02:46:15;;;;;;;14.10;8.90;;;;;;;17.55;70.83;98286.34;26947;1224;3025945;-59
2021/09/02 02:48:44;;;;;;;16.90;9.70;;;;;;;17.97;69.85;98282.39;26913;1225;3026959;-59
2021/09/02 02:51:18;;;;;;;15.30;9.90;;;;;;;18.25;68.51;98286.59;26893;1221;3052256;-58
2021/09/02 02:53:48;;;;;;;20.60;12.90;;;;;;;18.07;68.97;98287.17;26914;1224;3026470;-61
2021/09/02 02:56:17;;;;;;;21.00;13.70;;;;;;;17.80;69.99;98294.23;26904;1222;3027176;-58
2021/09/02 02:58:48;;;;;;;21.20;12.40;;;;;;;17.56;70.82;98296.49;26918;1225;3026379;-59
2021/09/02 03:01:17;;;;;;;17.20;11.00;;;;;;;17.39;71.49;98295.50;26878;1228;3070561;-56
2021/09/02 03:03:46;;;;;;;13.10;6.90;;;;;;;17.34;71.88;98297.66;26881;1225;3026042;-58
2021/09/02 03:06:15;;;;;;;13.20;7.40;;;;;;;17.80;70.41;98295.66;26925;1222;3049677;-59
2021/09/02 03:08:44;;;;;;;14.10;6.70;;;;;;;17.99;69.54;98293.34;26879;1221;3027004;-57
2021/09/02 03:11:12;;;;;;;13.80;7.20;;;;;;;17.90;69.70;98294.05;26945;1220;3052013;-61
2021/09/02 03:14:01;;;;;;;15.10;7.10;;;;;;;17.89;69.55;98296.19;26904;1225;3050539;-61
2021/09/02 03:16:30;;;;;;;13.40;7.70;;;;;;;17.93;69.27;98291.49;26891;1223;3028505;-60
2021/09/02 03:18:59;;;;;;;19.10;7.80;;;;;;;17.94;68.63;98291.73;26898;1228;3051603;-59
2021/09/02 03:21:28;;;;;;;13.80;6.50;;;;;;;17.89;69.22;98285.81;26900;1221;3027584;-56
2021/09/02 03:23:57;;;;;;;11.70;6.00;;;;;;;18.40;68.61;98286.36;26925;1221;3048944;-59
2021/09/02 03:26:26;;;;;;;10.80;6.70;;;;;;;18.66;67.25;98288.42;26908;1222;3027518;-59
2021/09/02 03:28:55;;;;;;;14.20;6.60;;;;;;;18.62;67.26;98285.94;26900;1224;3027231;-60
2021/09/02 03:31:24;;;;;;;16.90;7.20;;;;;;;18.63;66.78;98284.47;26879;1224;3050620;-60
2021/09/02 03:33:53;;;;;;;15.30;6.90;;;;;;;18.34;67.43;98286.05;26909;1225;3026425;-62
2021/09/02 03:36:25;;;;;;;10.30;6.30;;;;;;;18.00;68.39;98287.48;26930;1221;3057704;-60
2021/09/02 03:38:56;;;;;;;12.40;6.70;;;;;;;17.69;69.89;98292.81;26869;1221;3025999;-58
2021/09/02 03:41:25;;;;;;;13.50;5.90;;;;;;;17.59;70.61;98288.61;26901;1227;3028864;-60
2021/09/02 03:43:54;;;;;;;13.20;6.00;;;;;;;18.01;69.48;98289.69;26888;1221;3054882;-58
2021/09/02 03:46:24;;;;;;;12.10;6.80;;;;;;;18.27;68.60;98288.30;26900;1223;3026394;-55
2021/09/02 03:48:52;;;;;;;17.00;7.90;;;;;;;18.14;68.69;98290.74;26928;1219;3027336;-58
2021/09/02 03:51:21;;;;;;;18.50;8.10;;;;;;;18.06;69.17;98287.44;26924;1219;3054836;-60
2021/09/02 03:53:51;;;;;;;22.70;9.00;;;;;;;18.00;69.40;98285.98;26877;1225;3028286;-57
2021/09/02 03:56:21;;;;;;;22.30;10.50;;;;;;;17.94;69.13;98281.48;26917;1228;3026412;-59
2021/09/02 03:58:51;;;;;;;20.60;9.40;;;;;;;17.94;69.12;98281.05;26903;1220;3026164;-58
2021/09/02 04:01:20;;;;;;;26.20;11.10;;;;;;;18.51;67.96;98269.95;26891;1221;3026558;-58
2021/09/02 04:03:49;;;;;;;30.90;13.60;;;;;;;19.05;65.87;98268.52;26921;1224;3028207;-57
2021/09/02 04:06:18;;;;;;;31.70;15.50;;;;;;;18.91;66.08;98268.55;26911;1225;3049393;-57
2021/09/02 04:08:47;;;;;;;37.10;17.80;;;;;;;18.95;65.47;98266.00;26919;1221;3027958;-60
2021/09/02 04:11:16;;;;;;;47.70;20.80;;;;;;;18.69;66.30;98265.49;26901;1224;3051643;-57
2021/09/02 04:15:50;;;;;;;49.20;22.40;;;;;;;18.18;68.25;98264.84;33870;1219;3026277;-70
2021/09/02 04:18:19;;;;;;;47.40;18.70;;;;;;;17.94;68.97;98263.69;27248;1219;3026361;-67
2021/09/02 04:20:48;;;;;;;32.30;13.90;;;;;;;17.66;69.75;98266.02;27044;1222;3026334;-69
2021/09/02 04:23:17;;;;;;;29.30;9.70;;;;;;;17.37;71.54;98262.13;26976;1220;3048020;-66
2021/09/02 04:25:46;;;;;;;12.90;7.70;;;;;;;17.81;70.21;98262.70;27007;1223;3025805;-68
2021/09/02 04:28:15;;;;;;;18.70;8.00;;;;;;;18.01;69.12;98266.35;27004;1219;3070037;-69
2021/09/02 04:30:44;;;;;;;12.20;7.70;;;;;;;17.83;69.59;98259.09;26994;1220;3026449;-64
2021/09/02 04:33:13;;;;;;;10.70;6.50;;;;;;;17.70;70.01;98261.23;27051;1222;3051622;-65
2021/09/02 04:35:42;;;;;;;15.60;8.10;;;;;;;17.33;71.40;98264.30;27073;1222;3025955;-69
2021/09/02 04:38:11;;;;;;;16.00;9.70;;;;;;;16.81;73.35;98273.70;27001;1222;3054752;-68
2021/09/02 04:40:40;;;;;;;22.10;12.40;;;;;;;16.92;73.35;98271.85;27029;1220;3026045;-72
2021/09/02 04:43:09;;;;;;;31.00;19.00;;;;;;;17.07;72.66;98266.35;26959;1219;3048754;-72
2021/09/02 04:45:38;;;;;;;32.90;20.10;;;;;;;16.95;73.10;98269.43;27046;1219;3026312;-69
2021/09/02 04:48:20;;;;;;;46.40;28.30;;;;;;;16.90;73.36;98259.48;27003;1218;3057518;-71
2021/09/02 04:50:50;;;;;;;32.60;19.90;;;;;;;16.67;74.31;98261.16;26967;1226;3049490;-74
2021/09/02 04:53:19;;;;;;;24.90;14.20;;;;;;;16.64;74.54;98259.93;27007;1219;3026185;-67
2021/09/02 04:55:48;;;;;;;19.50;13.00;;;;;;;17.23;72.66;98251.91;27012;1220;3028313;-72
2021/09/02 04:58:17;;;;;;;22.90;11.90;;;;;;;17.65;70.87;98251.44;27005;1220;3049813;-65
2021/09/02 05:00:45;;;;;;;20.90;11.10;;;;;;;17.51;70.95;98252.66;27011;1222;3026256;-70
2021/09/02 05:03:15;;;;;;;24.50;10.70;;;;;;;17.46;71.30;98246.95;27045;1220;3058138;-69
2021/09/02 05:05:44;;;;;;;22.10;10.10;;;;;;;17.25;72.03;98243.73;27045;1218;3027269;-71
2021/09/02 05:08:13;;;;;;;12.10;6.80;;;;;;;17.12;72.59;98240.26;26987;1220;3053613;-71
2021/09/02 05:10:42;;;;;;;8.90;5.90;;;;;;;17.61;71.13;98233.98;27040;1220;3026372;-76
2021/09/02 05:13:11;;;;;;;13.30;6.20;;;;;;;17.78;70.13;98235.76;26956;1226;3025920;-68
2021/09/02 05:15:40;;;;;;;16.20;6.20;;;;;;;17.76;69.76;98241.64;27057;1221;3052730;-68
2021/09/02 05:18:23;;;;;;;14.10;5.90;;;;;;;17.49;70.59;98235.70;27057;1222;3058090;-67
2021/09/02 05:21:08;;;;;;;9.00;5.50;;;;;;;17.29;71.48;98237.13;27009;1220;3048752;-62
2021/09/02 05:23:38;;;;;;;9.90;5.00;;;;;;;17.30;71.77;98237.57;27038;1222;3026333;-69
2021/09/02 05:26:08;;;;;;;8.10;5.40;;;;;;;17.61;71.19;98233.50;27052;1220;3025867;-68
2021/09/02 05:28:37;;;;;;;8.80;5.40;;;;;;;17.75;70.60;98235.09;26991;1219;3025858;-66
2021/09/02 05:31:06;;;;;;;11.30;6.00;;;;;;;17.79;70.29;98231.84;27027;1220;3055046;-68
2021/09/02 05:33:35;;;;;;;10.80;6.00;;;;;;;17.68;70.66;98237.14;27029;1220;3026213;-69
2021/09/02 05:36:04;;;;;;;16.00;6.30;;;;;;;17.63;70.96;98240.76;26994;1225;3028169;-67
2021/09/02 05:38:34;;;;;;;9.70;4.20;;;;;;;17.66;71.21;98240.73;26984;1221;3054386;-67
2021/09/02 05:41:03;;;;;;;11.60;5.60;;;;;;;18.39;69.34;98238.70;27011;1220;3026366;-72
2021/09/02 05:43:34;;;;;;;12.40;6.30;;;;;;;18.96;67.26;98238.88;27022;1222;3051139;-68
2021/09/02 05:46:03;;;;;;;14.20;7.40;;;;;;;18.96;66.63;98242.59;26997;1226;3026032;-66
2021/09/02 05:48:33;;;;;;;13.70;7.70;;;;;;;18.56;67.69;98241.22;26999;1221;3027226;-66
2021/09/02 05:51:02;;;;;;;19.70;7.50;;;;;;;18.35;68.25;98245.38;27031;1218;3026244;-70
2021/09/02 05:53:36;;;;;;;16.90;7.60;;;;;;;18.24;69.02;98238.30;26957;1224;3054511;-66
2021/09/02 05:56:05;;;;;;;19.90;7.20;;;;;;;18.25;68.89;98235.17;27007;1220;3026927;-68
2021/09/02 05:58:34;;;;;;;16.50;6.40;;;;;;;18.59;67.80;98231.49;27022;1220;3049056;-70
2021/09/02 06:01:04;;;;;;;17.20;7.90;;;;;;;18.82;67.18;98229.64;27034;1220;3026636;-71
2021/09/02 06:03:33;;;;;;;15.50;7.70;;;;;;;19.04;66.18;98224.59;26989;1220;3026310;-71
2021/09/02 06:06:02;;;;;;;12.30;6.40;;;;;;;18.92;66.09;98227.08;27018;1219;3049614;-68
2021/09/02 06:08:34;;;;;;;11.30;7.30;;;;;;;18.86;66.70;98226.15;27042;1221;3026591;-70
2021/09/02 06:11:04;;;;;;;14.20;7.40;;;;;;;18.64;66.97;98226.38;26921;1220;3026708;-72
2021/09/02 06:13:33;;;;;;;17.70;9.00;;;;;;;18.54;67.79;98226.03;27066;1220;3026926;-68
2021/09/02 06:16:03;;;;;;;13.80;6.90;;;;;;;18.57;67.81;98227.29;26973;1220;3028379;-74
2021/09/02 06:18:32;;;;;;;17.70;7.80;;;;;;;19.29;66.35;98227.41;27065;1219;3028579;-65
2021/09/02 06:21:01;;;;;;;19.40;7.20;;;;;;;19.76;64.61;98227.49;26998;1220;3026338;-73
2021/09/02 06:23:30;;;;;;;15.60;6.40;;;;;;;19.55;64.88;98228.32;27011;1222;3048341;-67
2021/09/02 06:25:59;;;;;;;17.00;7.00;;;;;;;19.18;65.53;98226.95;27105;1219;3026113;-71
2021/09/02 06:28:28;;;;;;;12.00;6.40;;;;;;;18.90;66.30;98223.34;26997;1220;3067814;-67
2021/09/02 06:30:57;;;;;;;11.60;6.40;;;;;;;18.60;67.26;98226.10;27105;1219;3026013;-67
2021/09/02 06:33:26;;;;;;;16.30;6.50;;;;;;;18.45;68.33;98227.41;27052;1218;3049308;-69
2021/09/02 06:35:55;;;;;;;7.10;4.50;;;;;;;18.44;68.36;98230.54;26995;1219;3028051;-68
2021/09/02 06:38:24;;;;;;;11.00;6.10;;;;;;;18.86;67.03;98236.44;27010;1226;3054802;-73
2021/09/02 06:40:53;;;;;;;11.10;5.60;;;;;;;18.99;66.57;98234.23;27084;1219;3026571;-67
2021/09/02 06:43:22;;;;;;;12.40;5.70;;;;;;;18.87;66.67;98239.69;27034;1220;3049030;-67
2021/09/02 06:45:51;;;;;;;10.40;6.20;;;;;;;18.53;68.05;98241.56;27001;1218;3026289;-67
2021/09/02 06:48:20;;;;;;;11.90;5.60;;;;;;;18.46;67.78;98239.20;27101;1218;3026208;-67
2021/09/02 06:50:50;;;;;;;10.40;5.50;;;;;;;18.26;68.16;98246.61;27119;1218;3049333;-68
2021/09/02 06:53:19;;;;;;;7.50;4.10;;;;;;;18.20;68.26;98248.69;27015;1220;3025708;-68
2021/09/02 06:55:48;;;;;;;12.20;5.30;;;;;;;18.78;66.43;98254.41;26997;1218;3057468;-68
2021/09/02 06:58:16;;;;;;;11.30;5.30;;;;;;;18.95;65.86;98248.70;27037;1218;3027562;-69
2021/09/02 07:00:45;;;;;;;11.60;5.50;;;;;;;18.92;66.10;98251.51;27003;1222;3051996;-69
2021/09/02 07:03:14;;;;;;;9.90;5.10;;;;;;;18.82;66.22;98256.21;27031;1222;3026140;-66
2021/09/02 07:05:43;;;;;;;10.30;5.50;;;;;;;18.52;67.39;98254.10;26978;1220;3050477;-70
2021/09/02 07:08:12;;;;;;;8.10;5.40;;;;;;;18.37;67.79;98254.23;27015;1220;3027560;-71
2021/09/02 07:10:52;;;;;;;8.70;5.20;;;;;;;18.28;68.18;98257.02;27014;1219;3048283;-68
2021/09/02 07:13:21;;;;;;;6.90;3.90;;;;;;;18.30;68.70;98260.31;27070;1218;3026246;-66
2021/09/02 07:15:50;;;;;;;9.70;4.70;;;;;;;18.89;66.83;98260.91;27046;1218;3070272;-67
2021/09/02 07:18:19;;;;;;;8.90;5.00;;;;;;;19.11;66.17;98256.14;26980;1220;3026472;-66
2021/09/02 07:20:48;;;;;;;12.10;6.00;;;;;;;18.93;66.51;98258.35;27020;1218;3052358;-69
2021/09/02 07:23:17;;;;;;;12.90;6.10;;;;;;;18.82;67.03;98254.81;26970;1222;3025774;-70
2021/09/02 07:25:46;;;;;;;11.80;6.60;;;;;;;18.80;67.43;98258.08;26977;1218;3055166;-66
2021/09/02 07:28:15;;;;;;;12.00;6.60;;;;;;;18.63;68.41;98261.44;27073;1218;3025872;-66
2021/09/02 07:30:44;;;;;;;6.20;4.80;;;;;;;18.49;68.98;98259.99;26936;1219;3049210;-70
2021/09/02 07:33:13;;;;;;;8.50;5.50;;;;;;;18.85;67.98;98254.83;27039;1218;3028239;-69
2021/09/02 07:35:42;;;;;;;21.20;5.40;;;;;;;18.93;67.57;98258.85;27032;1218;3026575;-70
2021/09/02 07:38:11;;;;;;;10.40;6.80;;;;;;;19.03;67.08;98261.45;27016;1219;3048323;-70
2021/09/02 07:40:40;;;;;;;13.20;6.40;;;;;;;18.80;67.74;98264.46;26998;1218;3028224;-68
2021/09/02 07:43:09;;;;;;;12.50;6.60;;;;;;;18.64;67.86;98259.14;26992;1220;3057486;-70
2021/09/02 07:45:39;;;;;;;14.30;6.60;;;;;;;18.42;68.70;98265.81;27056;1218;3026534;-66
2021/09/02 07:48:08;;;;;;;7.30;5.00;;;;;;;18.34;69.50;98260.77;26980;1219;3027969;-71
2021/09/02 07:50:37;;;;;;;10.50;4.80;;;;;;;18.98;67.69;98260.98;27005;1219;3057459;-71
2021/09/02 07:53:06;;;;;;;10.70;5.80;;;;;;;19.35;65.94;98253.23;27011;1219;3026583;-65
2021/09/02 07:55:35;;;;;;;11.10;5.50;;;;;;;19.34;65.73;98258.83;27037;1219;3051424;-66
2021/09/02 07:58:04;;;;;;;11.20;5.30;;;;;;;19.12;66.37;98256.86;26917;1219;3068201;-69
2021/09/02 08:00:36;;;;;;;10.20;5.30;;;;;;;19.00;66.91;98260.74;26920;1229;3026819;-68
2021/09/02 08:03:05;;;;;;;8.00;4.80;;;;;;;18.94;67.53;98261.04;26923;1222;3064469;-68
2021/09/02 08:05:34;;;;;;;5.20;4.10;;;;;;;18.71;68.06;98258.93;26905;1228;3092560;-69
2021/09/02 08:08:04;;;;;;;7.10;3.90;;;;;;;19.15;66.64;98261.50;26980;1220;3050982;-71
2021/09/02 08:10:33;;;;;;;9.60;5.00;;;;;;;19.28;65.88;98262.17;26815;1220;3150078;-68
2021/09/02 08:13:21;;;;;;;11.30;4.50;;;;;;;19.20;66.48;98261.10;26915;1218;3100560;-71
2021/09/02 08:16:07;;;;;;;7.30;5.00;;;;;;;19.04;66.68;98257.69;26948;1220;3049857;-70
2021/09/02 08:21:15;;;;;;;7.50;5.20;;;;;;;19.02;66.93;98256.04;33745;1226;3068016;-70
2021/09/02 08:23:44;;;;;;;7.00;4.40;;;;;;;18.85;66.73;98257.52;27045;1229;3026027;-69
2021/09/02 08:26:13;;;;;;;6.90;3.50;;;;;;;19.46;65.29;98254.57;26849;1231;3026606;-65
2021/09/02 08:28:43;;;;;;;6.70;3.60;;;;;;;19.53;64.27;98254.77;26927;1228;3048523;-67
2021/09/02 08:31:12;;;;;;;8.90;3.40;;;;;;;19.50;63.29;98254.09;26965;1228;3026155;-64
2021/09/02 08:33:41;;;;;;;4.70;3.20;;;;;;;19.34;62.23;98255.10;26873;1230;3025911;-68
2021/09/02 08:36:10;;;;;;;6.00;3.10;;;;;;;19.15;61.78;98250.85;26954;1227;3050603;-70
2021/09/02 08:38:41;;;;;;;6.50;3.00;;;;;;;19.17;61.78;98249.82;26903;1228;3026493;-69
2021/09/02 08:41:11;;;;;;;7.60;3.00;;;;;;;19.08;62.58;98252.08;26945;1231;3026203;-69
2021/09/02 08:43:40;;;;;;;4.50;3.20;;;;;;;18.97;62.92;98250.48;26898;1224;3026128;-69
2021/09/02 08:46:10;;;;;;;4.70;3.40;;;;;;;18.93;63.29;98248.12;26925;1224;3053599;-66
2021/09/02 08:48:46;;;;;;;10.40;3.50;;;;;;;18.97;62.91;98248.85;26915;1227;3028003;-69
2021/09/02 08:51:15;;;;;;;5.00;2.50;;;;;;;18.90;63.79;98249.32;26941;1226;3055511;-69
2021/09/02 08:53:45;;;;;;;5.90;3.00;;;;;;;19.34;62.65;98241.55;26975;1224;3026388;-67
2021/09/02 08:56:14;;;;;;;3.80;2.50;;;;;;;19.63;61.64;98236.80;26919;1229;3025707;-69
2021/09/02 08:58:43;;;;;;;4.30;2.80;;;;;;;19.84;61.08;98233.08;26882;1228;3026412;-68
2021/09/02 09:01:12;;;;;;;5.70;2.70;;;;;;;19.69;61.15;98230.41;26935;1225;3026985;-65
2021/09/02 09:03:47;;;;;;;6.30;3.40;;;;;;;19.70;61.60;98229.01;26906;1230;3054524;-68
2021/09/02 09:06:24;;;;;;;5.30;3.00;;;;;;;19.62;61.79;98227.52;26912;1223;3050007;-68
2021/09/02 09:08:53;;;;;;;4.90;3.50;;;;;;;19.51;62.63;98228.13;26856;1227;3067132;-73
2021/09/02 09:11:47;;;;;;;5.00;3.20;;;;;;;19.33;63.12;98225.10;26998;1230;3051552;-63
2021/09/02 09:14:18;;;;;;;9.30;3.60;;;;;;;19.32;63.17;98223.00;27009;1229;3052772;-68
2021/09/02 09:16:51;;;;;;;8.10;2.70;;;;;;;19.26;62.89;98226.48;26995;1222;3025998;-68
2021/09/02 09:19:39;;;;;;;3.90;2.20;;;;;;;19.38;62.93;98223.55;26990;1225;3029128;-67
2021/09/02 09:22:11;;;;;;;5.20;2.20;;;;;;;20.06;60.33;98217.31;26978;1226;3049445;-70
2021/09/02 09:24:46;;;;;;;4.50;2.70;;;;;;;20.43;59.21;98217.17;26913;1226;3026830;-65
2021/09/02 09:27:31;;;;;;;6.40;2.90;;;;;;;20.39;59.76;98220.65;26975;1228;3052916;-68
2021/09/02 09:30:14;;;;;;;9.10;3.50;;;;;;;20.23;60.70;98221.75;26909;1225;3071491;-69
2021/09/02 09:32:47;;;;;;;5.30;3.40;;;;;;;20.07;61.91;98225.04;26974;1225;3049463;-75
2021/09/02 09:35:32;;;;;;;5.30;3.90;;;;;;;20.01;61.92;98222.42;27041;1228;3025838;-69
2021/09/02 09:38:12;;;;;;;6.40;3.90;;;;;;;19.73;62.69;98221.98;26953;1222;3054713;-73
2021/09/02 09:40:45;;;;;;;4.80;4.20;;;;;;;19.67;62.79;98221.63;26920;1230;3056060;-68
2021/09/02 09:43:21;;;;;;;5.50;3.90;;;;;;;19.63;63.14;98220.45;27008;1223;3048776;-66
2021/09/02 09:45:54;;;;;;;7.40;4.10;;;;;;;19.60;63.39;98218.62;26988;1222;3051422;-72
2021/09/02 09:48:34;;;;;;;5.90;2.90;;;;;;;19.66;63.47;98222.02;27034;1230;3052146;-66
2021/09/02 09:51:13;;;;;;;10.60;5.10;;;;;;;20.33;61.55;98227.67;27013;1222;3068092;-70
2021/09/02 09:53:50;;;;;;;9.00;4.60;;;;;;;20.68;60.41;98224.69;27002;1222;3049528;-76
2021/09/02 09:56:21;;;;;;;12.40;6.30;;;;;;;20.42;60.88;98230.20;26913;1228;3055713;-65
2021/09/02 09:58:52;;;;;;;11.50;6.10;;;;;;;20.10;62.17;98225.83;26983;1227;3027029;-67
2021/09/02 10:01:21;;;;;;;10.20;6.00;;;;;;;20.06;62.43;98223.27;26930;1225;3028439;-75
2021/09/02 10:03:51;;;;;;;12.60;6.60;;;;;;;19.84;63.47;98223.18;26932;1230;3026440;-78
2021/09/02 10:06:20;;;;;;;18.50;6.70;;;;;;;19.87;63.03;98220.83;27004;1223;3026245;-68
2021/09/02 10:08:52;;;;;;;10.30;6.10;;;;;;;19.85;62.91;98222.71;27019;1225;3026986;-66
2021/09/02 10:11:20;;;;;;;14.10;5.90;;;;;;;19.88;62.64;98226.58;26941;1225;3028054;-75
2021/09/02 10:13:50;;;;;;;10.80;6.40;;;;;;;19.76;63.25;98233.27;26914;1231;3051438;-68
2021/09/02 10:16:20;;;;;;;11.90;5.10;;;;;;;19.55;64.47;98244.30;26953;1225;3026410;-68
2021/09/02 10:18:55;;;;;;;9.60;4.90;;;;;;;19.62;64.95;98256.79;26943;1225;3049694;-67
2021/09/02 10:21:23;;;;;;;7.50;5.50;;;;;;;19.61;65.07;98253.17;27002;1225;3026315;-70
2021/09/02 10:23:53;;;;;;;11.20;5.40;;;;;;;19.38;66.55;98259.96;26987;1225;3058673;-75
2021/09/02 10:26:33;;;;;;;10.70;5.90;;;;;;;18.86;69.94;98263.77;26977;1223;3026534;-64
2021/09/02 10:29:31;;;;;;;7.40;4.90;;;;;;;18.30;72.77;98282.58;26949;1221;3055544;-67
2021/09/02 10:32:22;;;;;;;6.60;4.20;;;;;;;17.98;73.45;98277.91;26917;1225;3050865;-66
2021/09/02 10:35:12;;;;;;;9.50;5.10;;;;;;;18.27;72.18;98271.30;26987;1228;3070671;-65
2021/09/02 10:37:41;;;;;;;12.20;5.50;;;;;;;18.18;72.81;98282.52;27011;1222;3049039;-70
2021/09/02 10:40:17;;;;;;;10.20;5.80;;;;;;;18.14;72.77;98278.17;26952;1231;3025575;-69
2021/09/02 10:42:56;;;;;;;10.30;6.20;;;;;;;18.02;72.93;98276.48;26977;1224;3054044;-67
2021/09/02 10:45:25;;;;;;;6.80;4.70;;;;;;;17.88;72.67;98285.66;26871;1227;3088102;-66
2021/09/02 10:47:56;;;;;;;9.70;5.10;;;;;;;18.42;72.01;98273.45;26956;1222;3026003;-69
2021/09/02 10:50:27;;;;;;;7.00;5.90;;;;;;;18.71;70.64;98269.33;26949;1229;3052797;-72
2021/09/02 10:53:10;;;;;;;9.90;5.90;;;;;;;18.58;70.35;98270.87;26915;1223;3025598;-66
2021/09/02 10:55:51;;;;;;;8.50;5.90;;;;;;;18.30;71.05;98270.25;26921;1224;3052062;-66
2021/09/02 10:58:52;;;;;;;9.70;4.30;;;;;;;18.14;71.58;98278.67;26943;1230;3055310;-66
2021/09/02 11:01:26;;;;;;;6.90;4.90;;;;;;;18.63;70.17;98278.62;26755;1228;3052009;-69
2021/09/02 11:03:56;;;;;;;10.00;5.00;;;;;;;18.57;68.95;98283.20;26853;1228;3122487;-65
2021/09/02 11:06:48;;;;;;;5.90;5.00;;;;;;;18.26;70.05;98274.05;26921;1232;3048458;-67
2021/09/02 11:09:46;;;;;;;12.40;5.10;;;;;;;18.00;70.96;98271.64;26887;1231;3054105;-69
2021/09/02 11:12:23;;;;;;;8.80;5.20;;;;;;;17.78;72.00;98267.10;26814;1232;3053393;-66
2021/09/02 11:14:52;;;;;;;8.30;3.50;;;;;;;17.76;71.95;98266.61;26693;1232;3026744;-67
2021/09/02 11:17:23;;;;;;;6.30;4.20;;;;;;;18.06;70.25;98261.98;26725;1231;3027345;-69
2021/09/02 11:19:51;;;;;;;7.60;4.80;;;;;;;18.22;69.74;98261.34;26751;1230;3025957;-70
2021/09/02 11:22:20;;;;;;;13.70;4.50;;;;;;;18.02;70.04;98268.16;26692;1232;3055764;-67
2021/09/02 11:24:51;;;;;;;8.00;4.30;;;;;;;17.92;70.22;98262.70;26980;1229;3025617;-69
2021/09/02 11:27:25;;;;;;;13.70;4.40;;;;;;;17.74;70.57;98266.70;27520;1230;3053376;-67
2021/09/02 11:30:20;;;;;;;5.10;3.00;;;;;;;17.61;70.67;98269.41;27448;1230;3055684;-68
2021/09/02 11:33:02;;;;;;;8.60;3.70;;;;;;;18.06;69.52;98265.80;27347;1230;3048952;-69
2021/09/02 11:35:57;;;;;;;8.40;3.30;;;;;;;18.26;68.18;98274.02;26677;1232;3054007;-67